Time,TemperatureF,DewpointF,PressureIn,WindDirection,WindDirectionDegrees,WindSpeedMPH,WindSpeedGustMPH,Humidity,HourlyPrecipIn,Conditions,Clouds,dailyrainin,SoftwareType,DateUTC
2013-01-30 00:03:00,34.0,33.0,30.04,North,0,0.0,0.0,97,0.03,,,0.47,,2013-01-30 05:03:00,
2013-01-30 00:12:00,33.0,32.0,30.04,North,0,0.0,0.0,97,0.02,,,0.48,,2013-01-30 05:12:00,
2013-01-30 00:22:00,33.0,32.0,30.04,North,0,0.0,0.0,97,0.02,,,0.48,,2013-01-30 05:22:00,
2013-01-30 00:32:00,33.0,32.0,30.04,North,0,0.0,0.0,97,0.02,,,0.48,,2013-01-30 05:32:00,
2013-01-30 00:43:00,33.0,32.0,30.04,North,0,0.0,0.0,97,0.02,,,0.48,,2013-01-30 05:43:00,
2013-01-30 00:52:00,34.0,33.0,30.04,North,0,0.0,0.0,97,0.02,,,0.48,,2013-01-30 05:52:00,
2013-01-30 01:02:00,34.0,33.0,30.04,North,0,0.0,0.0,97,0.02,,,0.49,,2013-01-30 06:02:00,
2013-01-30 01:11:00,34.0,33.0,30.04,North,0,0.0,0.0,97,0.02,,,0.49,,2013-01-30 06:11:00,
2013-01-30 01:21:00,34.0,33.0,30.03,North,0,0.0,0.0,97,0.02,,,0.50,,2013-01-30 06:21:00,
2013-01-30 01:32:00,34.0,33.0,30.02,North,0,0.0,0.0,97,0.02,,,0.50,,2013-01-30 06:32:00,
2013-01-30 01:42:00,34.0,33.0,30.02,North,0,0.0,0.0,97,0.02,,,0.50,,2013-01-30 06:42:00,
2013-01-30 01:52:00,34.0,33.0,30.02,North,0,0.0,0.0,97,0.02,,,0.50,,2013-01-30 06:52:00,
2013-01-30 02:02:00,34.0,33.0,30.01,North,0,0.0,0.0,97,0.01,,,0.50,,2013-01-30 07:02:00,
2013-01-30 02:11:00,34.0,33.0,30.01,North,0,0.0,0.0,97,0.01,,,0.50,,2013-01-30 07:11:00,
2013-01-30 02:21:00,34.0,33.0,30.00,North,0,0.0,0.0,97,0.00,,,0.50,,2013-01-30 07:21:00,
2013-01-30 02:32:00,34.0,33.0,29.99,North,0,0.0,0.0,97,0.01,,,0.51,,2013-01-30 07:32:00,
2013-01-30 02:42:00,34.0,33.0,29.99,North,0,0.0,0.0,97,0.01,,,0.51,,2013-01-30 07:42:00,
2013-01-30 02:52:00,34.0,33.0,29.98,North,0,0.0,0.0,97,0.01,,,0.51,,2013-01-30 07:52:00,
2013-01-30 03:01:00,34.0,33.0,29.97,North,0,0.0,0.0,97,0.01,,,0.51,,2013-01-30 08:01:00,
2013-01-30 03:11:00,34.0,33.0,29.97,North,0,0.0,0.0,97,0.01,,,0.51,,2013-01-30 08:11:00,
2013-01-30 03:21:00,34.0,33.0,29.97,North,0,0.0,0.0,97,0.01,,,0.51,,2013-01-30 08:21:00,
2013-01-30 03:32:00,34.0,33.0,29.96,North,0,0.0,0.0,97,0.00,,,0.51,,2013-01-30 08:32:00,
2013-01-30 03:42:00,34.0,33.0,29.96,North,0,0.0,0.0,97,0.00,,,0.51,,2013-01-30 08:42:00,
2013-01-30 03:52:00,35.0,34.0,29.95,North,0,0.0,0.0,97,0.00,,,0.51,,2013-01-30 08:52:00,
2013-01-30 04:02:00,35.0,34.0,29.94,North,0,0.0,0.0,97,0.00,,,0.51,,2013-01-30 09:02:00,
2013-01-30 04:11:00,35.0,34.0,29.94,North,0,0.0,0.0,97,0.00,,,0.51,,2013-01-30 09:11:00,
2013-01-30 04:21:00,35.0,34.0,29.93,North,0,0.0,0.0,97,0.00,,,0.51,,2013-01-30 09:21:00,
2013-01-30 04:32:00,35.0,34.0,29.93,North,0,0.0,0.0,97,0.00,,,0.51,,2013-01-30 09:32:00,
2013-01-30 04:42:00,35.0,34.0,29.93,North,0,0.0,0.0,97,0.00,,,0.51,,2013-01-30 09:42:00,
2013-01-30 04:52:00,34.0,33.0,29.91,North,0,0.0,0.0,97,0.01,,,0.52,,2013-01-30 09:52:00,
2013-01-30 05:01:00,34.0,33.0,29.91,North,0,0.0,0.0,97,0.01,,,0.52,,2013-01-30 10:01:00,
2013-01-30 05:12:00,34.0,33.0,29.91,North,0,0.0,0.0,97,0.01,,,0.52,,2013-01-30 10:12:00,
2013-01-30 05:21:00,34.0,33.0,29.89,North,0,0.0,0.0,97,0.01,,,0.52,,2013-01-30 10:21:00,
2013-01-30 05:32:00,34.0,33.0,29.89,North,0,0.0,0.0,97,0.01,,,0.52,,2013-01-30 10:32:00,
2013-01-30 05:42:00,34.0,33.0,29.89,North,0,0.0,0.0,97,0.01,,,0.52,,2013-01-30 10:42:00,
2013-01-30 05:52:00,34.0,33.0,29.89,North,0,0.0,0.0,97,0.00,,,0.52,,2013-01-30 10:52:00,
2013-01-30 06:02:00,34.0,33.0,29.89,North,0,0.0,0.0,97,0.00,,,0.52,,2013-01-30 11:02:00,
2013-01-30 06:11:00,34.0,33.0,29.89,North,0,0.0,0.0,97,0.00,,,0.52,,2013-01-30 11:11:00,
2013-01-30 06:22:00,34.0,33.0,29.88,North,0,0.0,0.0,97,0.00,,,0.52,,2013-01-30 11:22:00,
2013-01-30 06:33:00,34.0,33.0,29.88,North,0,0.0,0.0,97,0.00,,,0.52,,2013-01-30 11:33:00,
2013-01-30 06:42:00,34.0,33.0,29.88,North,0,0.0,0.0,97,0.00,,,0.52,,2013-01-30 11:42:00,
2013-01-30 06:52:00,35.0,34.0,29.86,North,0,0.0,0.0,97,0.00,,,0.52,,2013-01-30 11:52:00,
2013-01-30 07:02:00,35.0,34.0,29.84,North,0,0.0,0.0,97,0.00,,,0.52,,2013-01-30 12:02:00,
2013-01-30 07:12:00,35.0,34.0,29.84,North,0,0.0,0.0,97,0.00,,,0.52,,2013-01-30 12:12:00,
2013-01-30 07:22:00,35.0,34.0,29.84,North,0,0.0,0.0,97,0.01,,,0.53,,2013-01-30 12:22:00,
2013-01-30 07:33:00,35.0,34.0,29.84,North,0,0.0,0.0,97,0.01,,,0.53,,2013-01-30 12:33:00,
2013-01-30 07:43:00,35.0,34.0,29.84,North,0,0.0,0.0,97,0.01,,,0.53,,2013-01-30 12:43:00,
2013-01-30 08:03:00,35.0,34.0,29.81,North,0,0.0,0.0,97,0.01,,,0.53,,2013-01-30 13:03:00,
2013-01-30 08:12:00,35.0,34.0,29.81,North,0,0.0,0.0,97,0.01,,,0.53,,2013-01-30 13:12:00,
2013-01-30 08:23:00,35.0,34.0,29.81,North,0,0.0,0.0,97,0.00,,,0.53,,2013-01-30 13:23:00,
2013-01-30 08:33:00,35.0,34.0,29.81,North,0,0.0,0.0,97,0.01,,,0.54,,2013-01-30 13:33:00,
2013-01-30 08:43:00,35.0,34.0,29.81,North,0,0.0,0.0,97,0.01,,,0.54,,2013-01-30 13:43:00,
2013-01-30 08:53:00,35.0,34.0,29.80,North,0,0.0,0.0,97,0.01,,,0.54,,2013-01-30 13:53:00,
2013-01-30 09:03:00,36.0,35.0,29.79,North,0,0.0,1.0,97,0.01,,,0.54,,2013-01-30 14:03:00,
2013-01-30 09:12:00,36.0,35.0,29.79,North,0,0.0,1.0,97,0.01,,,0.54,,2013-01-30 14:12:00,
2013-01-30 09:23:00,36.0,35.0,29.78,North,0,0.0,0.0,97,0.01,,,0.54,,2013-01-30 14:23:00,
2013-01-30 09:33:00,36.0,35.0,29.78,North,0,0.0,0.0,97,0.00,,,0.54,,2013-01-30 14:33:00,
2013-01-30 09:42:00,36.0,35.0,29.78,North,0,0.0,0.0,97,0.00,,,0.54,,2013-01-30 14:42:00,
2013-01-30 09:53:00,36.0,35.0,29.78,North,0,0.0,0.0,97,0.00,,,0.54,,2013-01-30 14:53:00,
2013-01-30 10:03:00,36.0,35.0,29.76,North,0,0.0,0.0,97,0.00,,,0.54,,2013-01-30 15:03:00,
2013-01-30 10:12:00,36.0,35.0,29.76,North,0,0.0,0.0,97,0.00,,,0.54,,2013-01-30 15:12:00,
2013-01-30 10:23:00,36.0,35.0,29.75,North,0,0.0,1.0,98,0.01,,,0.55,,2013-01-30 15:23:00,
2013-01-30 10:33:00,37.0,36.0,29.74,North,0,0.0,1.0,97,0.01,,,0.55,,2013-01-30 15:33:00,
2013-01-30 10:43:00,37.0,36.0,29.74,North,0,0.0,1.0,97,0.01,,,0.55,,2013-01-30 15:43:00,
2013-01-30 10:53:00,37.0,36.0,29.73,North,0,0.0,3.0,98,0.01,,,0.55,,2013-01-30 15:53:00,
2013-01-30 11:03:00,37.0,36.0,29.72,North,0,0.0,0.0,97,0.02,,,0.56,,2013-01-30 16:03:00,
2013-01-30 11:12:00,37.0,36.0,29.72,North,0,0.0,0.0,97,0.02,,,0.56,,2013-01-30 16:12:00,
2013-01-30 11:23:00,38.0,37.0,29.71,North,0,0.0,0.0,97,0.01,,,0.56,,2013-01-30 16:23:00,
2013-01-30 11:32:00,38.0,37.0,29.71,North,0,0.0,0.0,97,0.01,,,0.56,,2013-01-30 16:32:00,
2013-01-30 11:42:00,38.0,37.0,29.71,North,0,0.0,0.0,97,0.01,,,0.56,,2013-01-30 16:42:00,
2013-01-30 11:52:00,38.0,37.0,29.71,North,0,0.0,0.0,97,0.01,,,0.56,,2013-01-30 16:52:00,
2013-01-30 12:03:00,42.0,41.0,29.66,SW,218,4.0,9.0,98,0.01,,,0.57,,2013-01-30 17:03:00,
2013-01-30 12:13:00,42.0,41.0,29.66,SW,218,4.0,9.0,98,0.01,,,0.57,,2013-01-30 17:13:00,
2013-01-30 12:23:00,45.0,44.0,29.65,North,0,0.0,7.0,98,0.01,,,0.57,,2013-01-30 17:23:00,
2013-01-30 12:33:00,45.0,44.0,29.65,North,0,0.0,7.0,98,0.01,,,0.57,,2013-01-30 17:33:00,
2013-01-30 12:43:00,45.0,44.0,29.65,North,0,0.0,7.0,98,0.01,,,0.57,,2013-01-30 17:43:00,
2013-01-30 12:53:00,45.0,44.0,29.65,North,0,0.0,7.0,98,0.01,,,0.57,,2013-01-30 17:53:00,
2013-01-30 13:03:00,45.0,44.0,29.64,North,0,0.0,1.0,98,0.01,,,0.52,,2013-01-30 18:03:00,
2013-01-30 13:13:00,45.0,44.0,29.64,North,0,0.0,1.0,98,0.01,,,0.52,,2013-01-30 18:13:00,
2013-01-30 13:23:00,51.0,50.0,29.63,SSW,198,2.0,6.0,98,0.01,,,0.50,,2013-01-30 18:23:00,
2013-01-30 13:33:00,52.0,51.0,29.62,North,0,0.0,3.0,98,0.00,,,0.49,,2013-01-30 18:33:00,
2013-01-30 13:43:00,52.0,51.0,29.62,North,0,0.0,3.0,98,0.00,,,0.49,,2013-01-30 18:43:00,
2013-01-30 13:52:00,52.0,51.0,29.60,North,0,0.0,4.0,98,0.00,,,0.48,,2013-01-30 18:52:00,
2013-01-30 14:03:00,52.0,51.0,29.59,North,0,0.0,4.0,98,0.00,,,0.47,,2013-01-30 19:03:00,
2013-01-30 14:12:00,52.0,51.0,29.59,North,0,0.0,4.0,98,0.00,,,0.47,,2013-01-30 19:12:00,
2013-01-30 14:22:00,52.0,51.0,29.59,North,0,0.0,1.0,98,0.00,,,0.47,,2013-01-30 19:22:00,
2013-01-30 14:33:00,53.0,52.0,29.57,North,0,0.0,8.0,98,0.00,,,0.46,,2013-01-30 19:33:00,
2013-01-30 14:43:00,53.0,52.0,29.57,North,0,0.0,8.0,98,0.00,,,0.46,,2013-01-30 19:43:00,
2013-01-30 14:52:00,53.0,52.0,29.57,North,0,0.0,8.0,98,0.00,,,0.46,,2013-01-30 19:52:00,
2013-01-30 15:03:00,53.0,52.0,29.56,WSW,249,2.0,5.0,98,0.00,,,0.45,,2013-01-30 20:03:00,
2013-01-30 15:12:00,53.0,52.0,29.56,WSW,249,2.0,5.0,98,0.00,,,0.45,,2013-01-30 20:12:00,
2013-01-30 15:22:00,53.0,52.0,29.56,WSW,249,2.0,5.0,98,0.00,,,0.45,,2013-01-30 20:22:00,
2013-01-30 15:33:00,53.0,52.0,29.56,WSW,249,2.0,5.0,98,0.00,,,0.45,,2013-01-30 20:33:00,
2013-01-30 15:42:00,53.0,52.0,29.56,WSW,249,2.0,5.0,98,0.00,,,0.45,,2013-01-30 20:42:00,
2013-01-30 16:04:00,53.0,52.0,29.55,North,0,0.0,3.0,98,0.00,,,0.42,,2013-01-30 21:04:00,
2013-01-30 16:12:00,53.0,52.0,29.55,North,0,0.0,3.0,98,0.00,,,0.42,,2013-01-30 21:12:00,
2013-01-30 16:23:00,53.0,52.0,29.56,North,0,0.0,2.0,98,0.00,,,0.42,,2013-01-30 21:23:00,
2013-01-30 16:32:00,53.0,52.0,29.56,North,0,0.0,1.0,98,0.01,,,0.43,,2013-01-30 21:32:00,
2013-01-30 16:42:00,53.0,52.0,29.56,North,0,0.0,1.0,98,0.01,,,0.43,,2013-01-30 21:42:00,
2013-01-30 16:52:00,53.0,52.0,29.56,North,0,0.0,1.0,98,0.01,,,0.43,,2013-01-30 21:52:00,
2013-01-30 17:03:00,53.0,52.0,29.56,North,0,0.0,1.0,98,0.01,,,0.43,,2013-01-30 22:03:00,
2013-01-30 17:33:00,54.0,53.0,29.52,West,259,1.0,4.0,98,0.03,,,0.45,,2013-01-30 22:33:00,
2013-01-30 17:43:00,54.0,53.0,29.52,West,259,1.0,4.0,98,0.03,,,0.45,,2013-01-30 22:43:00,
2013-01-30 17:53:00,54.0,53.0,29.52,West,259,1.0,4.0,98,0.03,,,0.45,,2013-01-30 22:53:00,
2013-01-30 18:02:00,55.0,54.0,29.51,WSW,252,1.0,4.0,98,0.03,,,0.46,,2013-01-30 23:02:00,
2013-01-30 18:12:00,55.0,54.0,29.51,WSW,252,1.0,4.0,98,0.03,,,0.46,,2013-01-30 23:12:00,
2013-01-30 18:22:00,55.0,54.0,29.51,WSW,252,1.0,4.0,98,0.03,,,0.46,,2013-01-30 23:22:00,
2013-01-30 18:33:00,55.0,54.0,29.50,North,0,0.0,2.0,98,0.02,,,0.47,,2013-01-30 23:33:00,
2013-01-30 18:42:00,55.0,54.0,29.50,North,0,0.0,2.0,98,0.02,,,0.47,,2013-01-30 23:42:00,
2013-01-30 18:52:00,55.0,54.0,29.50,North,0,0.0,2.0,98,0.02,,,0.47,,2013-01-30 23:52:00,
2013-01-30 19:02:00,53.0,52.0,29.52,SSW,201,3.0,6.0,98,0.03,,,0.49,,2013-01-31 00:02:00,
2013-01-30 19:11:00,53.0,52.0,29.52,SSW,201,3.0,6.0,98,0.03,,,0.49,,2013-01-31 00:11:00,
2013-01-30 19:22:00,55.0,54.0,29.50,North,0,0.0,4.0,98,0.03,,,0.49,,2013-01-31 00:22:00,
2013-01-30 19:32:00,55.0,54.0,29.49,SSW,207,1.0,3.0,98,0.03,,,0.49,,2013-01-31 00:32:00,
2013-01-30 19:42:00,55.0,54.0,29.49,SSW,207,1.0,3.0,98,0.03,,,0.49,,2013-01-31 00:42:00,
2013-01-30 19:52:00,55.0,54.0,29.48,North,0,0.0,6.0,98,0.03,,,0.49,,2013-01-31 00:52:00,
2013-01-30 20:02:00,55.0,54.0,29.47,SW,228,1.0,2.0,98,0.01,,,0.49,,2013-01-31 01:02:00,
2013-01-30 20:12:00,55.0,54.0,29.47,SW,228,1.0,2.0,98,0.01,,,0.49,,2013-01-31 01:12:00,
2013-01-30 20:22:00,55.0,54.0,29.47,SW,228,1.0,2.0,98,0.01,,,0.49,,2013-01-31 01:22:00,
2013-01-30 20:32:00,54.0,53.0,29.47,North,0,0.0,2.0,98,0.00,,,0.45,,2013-01-31 01:32:00,
2013-01-30 20:42:00,54.0,53.0,29.47,North,0,0.0,2.0,98,0.00,,,0.45,,2013-01-31 01:42:00,
2013-01-30 20:53:00,54.0,53.0,29.47,SSW,213,1.0,4.0,98,0.00,,,0.45,,2013-01-31 01:53:00,
2013-01-30 21:01:00,54.0,53.0,29.47,North,0,0.0,2.0,98,0.00,,,0.44,,2013-01-31 02:01:00,
2013-01-30 21:12:00,54.0,53.0,29.47,North,0,0.0,2.0,98,0.00,,,0.44,,2013-01-31 02:12:00,
2013-01-30 21:22:00,54.0,53.0,29.47,North,0,0.0,2.0,98,0.00,,,0.44,,2013-01-31 02:22:00,
2013-01-30 21:32:00,54.0,53.0,29.47,North,0,0.0,2.0,98,0.00,,,0.44,,2013-01-31 02:32:00,
2013-01-30 21:42:00,54.0,53.0,29.47,North,0,0.0,2.0,98,0.00,,,0.44,,2013-01-31 02:42:00,
2013-01-30 22:03:00,53.0,52.0,29.44,North,0,0.0,2.0,98,0.00,,,0.29,,2013-01-31 03:03:00,
2013-01-30 22:11:00,53.0,52.0,29.44,North,0,0.0,2.0,98,0.00,,,0.29,,2013-01-31 03:11:00,
2013-01-30 22:22:00,53.0,52.0,29.44,North,0,0.0,2.0,98,0.00,,,0.29,,2013-01-31 03:22:00,
2013-01-30 22:32:00,50.0,49.0,29.41,North,0,0.0,0.0,97,0.00,,,0.28,,2013-01-31 03:32:00,
2013-01-30 22:42:00,50.0,49.0,29.41,North,0,0.0,0.0,97,0.00,,,0.28,,2013-01-31 03:42:00,
2013-01-30 22:52:00,50.0,49.0,29.41,North,0,0.0,0.0,97,0.00,,,0.28,,2013-01-31 03:52:00,
2013-01-30 23:02:00,46.0,45.0,29.38,North,0,0.0,2.0,97,0.00,,,0.24,,2013-01-31 04:02:00,
2013-01-30 23:11:00,46.0,45.0,29.38,North,0,0.0,2.0,97,0.00,,,0.24,,2013-01-31 04:11:00,
2013-01-30 23:22:00,45.0,44.0,29.37,North,0,0.0,1.0,97,0.01,,,0.23,,2013-01-31 04:22:00,
2013-01-30 23:32:00,45.0,44.0,29.35,North,0,0.0,2.0,97,0.01,,,0.23,,2013-01-31 04:32:00,
2013-01-30 23:41:00,45.0,44.0,29.35,North,0,0.0,2.0,97,0.01,,,0.23,,2013-01-31 04:41:00,
2013-01-30 23:51:00,45.0,44.0,29.35,North,0,0.0,2.0,97,0.01,,,0.23,,2013-01-31 04:51:00,